Thursday, January 17, 2019, 8:24 PM EST
Back to Local

KLNS, Lancaster Airport

Location: Lititz, PA, United States Lat: 40.117
Local Time: 8:24 PM EST ( 1:24 GMT) Lon: -76.3
Time Zone: US/Eastern Elev: 403 ft

Show me the last for .
Show Decoded

2019-01-17 19:53 METAR KLNS 180053Z 09004KT 1 1/4SM -SN BR OVC015 M02/M04 A3023 RMK AO2 SLP241
                 P0001 T10221039 =
2019-01-17 18:53 METAR KLNS 172353Z 16010KT 1SM -SN VV018 M01/M05 A3025 RMK AO2 SNB47 SLP248
                 P0000 60000 T10111050 10000 21011 55006 =
2019-01-17 18:50 METAR KLNS 172350Z 15009KT 1 3/4SM -SN BKN020 OVC043 M01/M06 A3025 RMK AO2 SNB47
                 P0000 =
2019-01-17 18:44 METAR KLNS 172344Z 15005KT 9SM BKN026 OVC043 00/M07 A3025 RMK AO2 T00001072 =
2019-01-17 17:53 METAR KLNS 172253Z 13007KT 10SM OVC042 00/M07 A3024 RMK AO2 SLP246 T00001067 =
2019-01-17 16:53 METAR KLNS 172153Z 12005KT 10SM OVC042 00/M07 A3025 RMK AO2 SLP248 T00001067 =
2019-01-17 15:53 METAR KLNS 172053Z 13005KT 10SM OVC041 00/M07 A3027 RMK AO2 SLP254 T00001072
                 56018 =
2019-01-17 14:53 METAR KLNS 171953Z 11006KT 10SM OVC046 00/M08 A3027 RMK AO2 SLP254 T00001083 =
2019-01-17 13:53 METAR KLNS 171853Z 13008KT 10SM BKN120 M01/M08 A3028 RMK AO2 SLP258 T10061083 =
2019-01-17 12:53 METAR KLNS 171753Z 11007KT 10SM CLR M01/M09 A3032 RMK AO2 SLP272 T10061089 11006
                 21033 58023 =
2019-01-17 11:53 METAR KLNS 171653Z 10006KT 10SM CLR M01/M09 A3035 RMK AO2 SLP282 T10111089 =
2019-01-17 10:53 METAR KLNS 171553Z 11006KT 10SM CLR M02/M09 A3039 RMK AO2 SLP295 T10171089 =
2019-01-17 09:53 METAR KLNS 171453Z 08006KT 10SM CLR M02/M09 A3039 RMK AO2 SLP295 T10221094 51013
                 =
2019-01-17 08:53 METAR KLNS 171353Z 06008KT 10SM CLR M03/M09 A3038 RMK AO2 SLP290 T10281089 =
2019-01-17 07:53 METAR KLNS 171253Z 03007KT 10SM CLR M03/M09 A3037 RMK AO2 SLP287 T10331089 =
2019-01-17 06:53 METAR KLNS 171153Z 05003KT 10SM CLR M03/M09 A3035 RMK AO2 SLP282 T10281089 10017
                 21033 53016 =
2019-01-17 05:53 METAR KLNS 171053Z COR 00000KT 10SM CLR M03/M08 A3033 RMK AO2 SLP274 T10281083 =
2019-01-17 04:53 METAR KLNS 170953Z AUTO 01004KT 10SM CLR M02/M08 A3032 RMK AO2 SLP271 T10171083
                 =
2019-01-17 03:53 METAR KLNS 170853Z AUTO 03007KT 10SM CLR M01/M08 A3030 RMK AO2 SLP266 T10061078
                 51014 =
2019-01-17 02:53 METAR KLNS 170753Z AUTO 34004KT 10SM CLR 00/M08 A3030 RMK AO2 SLP263 T00001078 =
2019-01-17 01:53 METAR KLNS 170653Z AUTO 33008KT 10SM FEW048 01/M08 A3028 RMK AO2 SLP259
                 T00111078 =
2019-01-17 00:53 METAR KLNS 170553Z AUTO 34006KT 10SM OVC046 02/M06 A3026 RMK AO2 SLP251
                 T00221061 10028 20022 51014 =
2019-01-16 23:53 METAR KLNS 170453Z AUTO 32007KT 10SM OVC046 02/M04 A3026 RMK AO2 SLP249
                 T00221039 400391061 =
2019-01-16 22:53 METAR KLNS 170353Z 29007KT 10SM OVC047 02/M04 A3025 RMK AO2 SLP247 T00221039 =
2019-01-16 21:53 METAR KLNS 170253Z 29007KT 10SM OVC050 02/M04 A3022 RMK AO2 SLP238 T00221039
                 53012 =
2019-01-16 20:53 METAR KLNS 170153Z 29010KT 10SM OVC050 03/M04 A3021 RMK AO2 SLP234 T00281039 =

Support USWX by starting your Amazon purchase here.